Saturday, February 28, 2015
23:03 UTC
  |  Log In   |  Register Free
Airport Search:

De Kalb County Airport
(KGWB)

De Kalb County Airport Diagram
No Airport Diagram Available

FAA data valid effective January 08, 2015 - March 05, 2015 (unless otherwise noted).

 
 
 
 
 
 
 
 
 
 
 
 
 
 

Current Aviation Weather for De Kalb County Airport (KGWB)

The most recent METAR observation for KGWB was updated at: 2213
METAR Summary (Translated METAR)
KGWB
282155Z AUTO 10007KT 10SM CLR M06/M16 A3060 RMK AO2
KANQ
282235Z AUTO 13006KT 10SM CLR M08/M17 A3058 RMK
(20 nm NW from KGWB)
KFWA
282154Z 09009KT 10SM BKN085 M07/M16 A3060 RMK AO2 SLP380 T10721156
(20.6 nm SW from KGWB)
TAF Summary (Translated TAF)
KFWA
(20.6 nm SW from KGWB)
281720Z 2818/0118 11007KT P6SM SCT025 BKN100 FM010200 12007KT 4SM -SN BKN025 OVC040 FM010700 VRB03KT 2SM -SN OVC010
  Airport Weather Conditions for KGWB

 Current Weather at GWB
21° F
Fair
East winds at 8.1 mph
GWB NOAA Radar

Pressure: 30.60 in
Humidity: 45%
Wind: East at 8.1 MPH (7 KT)
Dew Point: 3.2°F
Visibility: 10.00 mi


Airport Weather Forecast for KGWB

Translated METAR and TAF for KGWB
Translated METAR for KGWB (2303 UTC 28 February 2015)
found at http://aviationweather.gov/adds/metars/
 
METAR text: KGWB 282255Z AUTO 11004KT 10SM CLR M07/M16 A3059 RMK AO2
Conditions at: KGWB (AUBURN DEKALB C , IN, US) observed 2255 UTC 28 February 2015
Temperature: -7.0°C (19°F)
Dewpoint: -16.0°C (3°F) [RH = 49%]
Pressure (altimeter): 30.59 inches Hg (1036.0 mb)
Winds: from the ESE (110 degrees) at 5 MPH (4 knots; 2.1 m/s)
Visibility: 10 or more miles (16+ km)
Ceiling: at least 12,000 feet AGL
Clouds: sky clear below 12,000 feet AGL
Weather: automated observation with no human augmentation;
there may or may not be significant weather present at this time
Translated TAF for KGWB

There is no translated TAF available for this airport

Find All Airport Services Find A Hotel Find A Rental Car Find A Golf Course Find A Restaurant $100 Hamburger



FBO's on the Field
FBO Company Facility Photos Services Transportation Aviation Fuel Prices: Prices include tax
Catering Weather Repair Courtesy Rental Type 100LL JetA JetA+ MOGAS 8087
 
Century Aviation

This FBO has not yet been rated
FS:Shell
Last Updated: Feb-02
Login to update fuel prices
SS:
Contact Century AviationMore FBO Information
 
Add another FBO Facility Photos Catering Weather Repair Courtesy Rental Type 100LL JetA JetA+ MOGAS 8087
Services Transportation Aviation Fuel Prices: Prices include tax


model-print
model-print
model-print
model-print